createdAt,value
2018-06-11T00:06:42.579Z,12.8
2018-06-11T00:16:41.908Z,13
2018-06-11T00:26:41.033Z,12.8
2018-06-11T00:36:40.551Z,12.5
2018-06-11T00:46:39.472Z,13
2018-06-11T00:56:39.011Z,13
2018-06-11T01:06:37.938Z,12.7
2018-06-11T01:16:37.234Z,13
2018-06-11T01:26:36.432Z,12.8
2018-06-11T01:36:35.703Z,13
2018-06-11T01:46:35.003Z,12.7
2018-06-11T01:56:34.549Z,12.6
2018-06-11T02:06:33.505Z,12.9
2018-06-11T02:16:32.877Z,12.8
2018-06-11T02:26:31.810Z,12.9
2018-06-11T02:36:31.027Z,12.9
2018-06-11T02:46:30.258Z,12.6
2018-06-11T02:56:29.774Z,13
2018-06-11T03:06:28.896Z,13
2018-06-11T03:16:27.985Z,12.9
2018-06-11T03:26:27.185Z,12.9
2018-06-11T03:36:26.778Z,13.1
2018-06-11T03:46:25.634Z,13.3
2018-06-11T03:56:25.220Z,13.3
2018-06-11T04:06:24.693Z,13.6
2018-06-11T04:16:23.457Z,13.8
2018-06-11T04:26:22.702Z,14.3
2018-06-11T04:36:21.796Z,14.3
2018-06-11T04:46:21.172Z,14.4
2018-06-11T04:56:20.283Z,14
2018-06-11T05:06:19.782Z,14.3
2018-06-11T05:16:18.744Z,14.4
2018-06-11T05:26:17.945Z,14.3
2018-06-11T05:36:17.273Z,14.3
2018-06-11T05:46:16.649Z,14.5
2018-06-11T05:56:15.978Z,14.3
2018-06-11T06:06:14.889Z,14
2018-06-11T06:16:14.112Z,14.4
2018-06-11T06:26:13.677Z,14.2
2018-06-11T06:36:12.564Z,14.3
2018-06-11T06:46:11.791Z,14.3
2018-06-11T06:56:11.051Z,14.4
2018-06-11T07:06:10.262Z,14.3
2018-06-11T07:16:09.826Z,14
2018-06-11T07:26:08.723Z,13.9
2018-06-11T07:36:08.001Z,14.5
2018-06-11T07:46:07.191Z,14.4
2018-06-11T07:56:06.470Z,14.3
2018-06-11T08:06:05.640Z,13.8
2018-06-11T08:16:04.873Z,14.2
2018-06-11T08:26:04.125Z,14.3
2018-06-11T08:36:03.656Z,14
2018-06-11T08:46:02.877Z,14.4
2018-06-11T08:56:01.870Z,14.4
2018-06-11T09:06:01.338Z,14
2018-06-11T09:16:00.286Z,14.3
2018-06-11T09:25:59.546Z,14.1
2018-06-11T09:35:58.731Z,14
2018-06-11T09:45:58.007Z,14.2
2018-06-11T09:55:57.237Z,14.3
2018-06-11T10:05:56.419Z,14.3
2018-06-11T10:15:55.671Z,14.2
2018-06-11T10:25:55.243Z,14.3
2018-06-11T10:35:54.188Z,13.9
2018-06-11T10:45:53.345Z,14.2
2018-06-11T10:55:52.596Z,13.9
2018-06-11T11:05:51.810Z,14.3
2018-06-11T11:15:51.110Z,14.3
2018-06-11T11:25:50.587Z,14.3
2018-06-11T11:35:49.629Z,14.3
2018-06-11T11:45:48.750Z,14.3
2018-06-11T11:55:47.996Z,14.4
2018-06-11T12:05:47.212Z,13.9
2018-06-11T12:15:46.470Z,13.9
2018-06-11T12:25:45.693Z,13.9
2018-06-11T12:35:44.905Z,14.3
2018-06-11T12:45:44.139Z,14.3
2018-06-11T12:55:43.370Z,14.3
2018-06-11T13:05:42.611Z,14.3
2018-06-11T13:15:41.839Z,13.7
2018-06-11T13:25:41.079Z,14.3
2018-06-11T13:35:40.360Z,14.1
2018-06-11T13:45:39.836Z,13.6
2018-06-11T13:55:39.105Z,13.2
2018-06-11T14:05:38.359Z,12.9
2018-06-11T14:15:37.226Z,12.8
2018-06-11T14:25:36.803Z,13
2018-06-11T14:35:35.689Z,13
2018-06-11T14:45:34.908Z,13
2018-06-11T14:55:34.174Z,13
2018-06-11T15:05:33.390Z,12.9
2018-06-11T15:15:32.622Z,12.9
2018-06-11T15:25:32.151Z,12.6
2018-06-11T15:35:31.119Z,12.8
2018-06-11T15:45:30.297Z,12.9
2018-06-11T15:55:29.528Z,12.9
2018-06-11T16:05:28.763Z,12.6
2018-06-11T16:15:28.026Z,12.9
2018-06-11T16:25:27.529Z,13
2018-06-11T16:35:26.452Z,13
2018-06-11T16:45:25.703Z,12.5
2018-06-11T16:55:24.998Z,13
2018-06-11T17:05:24.470Z,12.9
2018-06-11T17:15:23.401Z,12.8
2018-06-11T17:25:22.675Z,13
2018-06-11T17:35:22.191Z,12.7
2018-06-11T17:45:21.404Z,12.9
2018-06-11T17:55:20.383Z,13.1
2018-06-11T18:05:19.902Z,12.6
2018-06-11T18:15:18.795Z,12.7
2018-06-11T18:25:18.029Z,12.7
2018-06-11T18:35:17.286Z,12.7
2018-06-11T18:45:16.954Z,12.9
2018-06-11T18:55:16.020Z,12.5
2018-06-11T19:05:15.027Z,12.7
2018-06-11T19:15:14.344Z,13
2018-06-11T19:25:13.430Z,12.9
2018-06-11T19:35:12.704Z,12.9
2018-06-11T19:45:11.894Z,12.9
2018-06-11T19:55:11.137Z,13
2018-06-11T20:05:10.421Z,12.7
2018-06-11T20:15:09.632Z,12.9
2018-06-11T20:25:08.848Z,12.9
2018-06-11T20:35:08.092Z,12.9
2018-06-11T20:45:07.306Z,12.6
2018-06-11T20:55:06.540Z,12.5
2018-06-11T21:05:05.839Z,12.9
2018-06-11T21:15:05.059Z,12.9
2018-06-11T21:25:04.232Z,12.9
2018-06-11T21:35:03.468Z,13
2018-06-11T21:45:03.035Z,12.9
2018-06-11T21:55:01.933Z,12.9
2018-06-11T22:05:01.234Z,12.9
2018-06-11T22:15:00.829Z,12.5
2018-06-11T22:25:00.009Z,12.9
2018-06-11T22:34:58.970Z,12.8
2018-06-11T22:44:58.259Z,12.9
2018-06-11T22:54:57.323Z,13
2018-06-11T23:04:56.569Z,12.9
2018-06-11T23:14:55.918Z,12.6
2018-06-11T23:24:55.323Z,13
2018-06-11T23:34:54.360Z,13
2018-06-11T23:44:53.559Z,12.5
2018-06-11T23:54:53.015Z,12.7
